createdAt,value
2023-05-11T00:01:54.137Z,13.8
2023-05-11T00:03:54.208Z,15.7
2023-05-11T00:05:54.299Z,19.2
2023-05-11T00:07:54.323Z,18.3
2023-05-11T00:09:54.608Z,21.8
2023-05-11T00:11:54.748Z,16.9
2023-05-11T00:13:54.721Z,16.5
2023-05-11T00:15:55.074Z,17.3
2023-05-11T00:17:55.055Z,21.5
2023-05-11T00:19:55.171Z,14.5
2023-05-11T00:21:55.543Z,18
2023-05-11T00:23:55.650Z,22.1
2023-05-11T00:25:56.099Z,13.6
2023-05-11T00:27:55.766Z,14.3
2023-05-11T00:29:55.764Z,18
2023-05-11T00:31:55.957Z,23.6
2023-05-11T00:33:56.064Z,23.1
2023-05-11T00:35:56.132Z,25.9
2023-05-11T00:37:56.319Z,24.5
2023-05-11T00:39:56.492Z,33
2023-05-11T00:41:56.695Z,23.1
2023-05-11T00:43:56.661Z,17.7
2023-05-11T00:45:56.931Z,25.1
2023-05-11T00:47:57.374Z,19
2023-05-11T00:49:57.574Z,17.6
2023-05-11T00:51:57.210Z,17.6
2023-05-11T00:53:58.212Z,17.8
2023-05-11T00:55:58.031Z,14
2023-05-11T00:57:57.559Z,15.4
2023-05-11T00:59:58.069Z,15.4
2023-05-11T01:01:58.009Z,16.3
2023-05-11T01:03:57.884Z,32.7
2023-05-11T01:06:07.559Z,13.3
2023-05-11T01:08:05.202Z,16.8
2023-05-11T01:10:04.170Z,22.2
2023-05-11T01:12:07.790Z,25
2023-05-11T01:14:05.997Z,43.6
2023-05-11T01:16:04.791Z,26.6
2023-05-11T01:18:07.900Z,19.9
2023-05-11T01:20:05.118Z,20.2
2023-05-11T01:22:00.869Z,20.6
2023-05-11T01:24:15.684Z,24.4
2023-05-11T01:26:15.677Z,18.7
2023-05-11T01:28:19.392Z,18.6
2023-05-11T01:30:23.912Z,24.2
2023-05-11T01:32:05.751Z,24
2023-05-11T01:34:04.540Z,15
2023-05-11T01:36:05.203Z,19.7
2023-05-11T01:38:02.222Z,12
2023-05-11T01:40:07.133Z,16.1
2023-05-11T01:42:07.926Z,13.2
2023-05-11T01:44:04.664Z,9.1
2023-05-11T01:46:03.151Z,11.3
2023-05-11T01:48:03.817Z,13.2
2023-05-11T01:50:03.491Z,16.8
2023-05-11T01:52:02.130Z,8.7
2023-05-11T01:54:01.853Z,8.8
2023-05-11T01:56:01.760Z,19
2023-05-11T01:58:03.156Z,14.2
2023-05-11T02:00:01.167Z,12.1
2023-05-11T02:02:03.422Z,16.7
2023-05-11T02:04:03.751Z,20.1
2023-05-11T02:06:04.474Z,12.1
2023-05-11T02:08:04.774Z,14.4
2023-05-11T02:10:03.332Z,20.9
2023-05-11T02:12:04.542Z,11.6
2023-05-11T02:14:04.902Z,13.6
2023-05-11T02:16:03.063Z,8.5
2023-05-11T02:18:05.772Z,18
2023-05-11T02:20:03.950Z,10.9
2023-05-11T02:22:03.712Z,16.5
2023-05-11T02:24:05.711Z,8.5
2023-05-11T02:26:03.294Z,11.8
2023-05-11T02:28:02.805Z,21.2
2023-05-11T02:30:04.549Z,9.4
2023-05-11T02:32:08.793Z,11
2023-05-11T02:34:07.886Z,18.1
2023-05-11T02:36:05.957Z,10.8
2023-05-11T02:38:05.340Z,10.5
2023-05-11T02:40:10.517Z,12.7
2023-05-11T02:42:10.578Z,7.8
2023-05-11T02:44:08.055Z,7.8
2023-05-11T02:46:21.058Z,8.6
2023-05-11T02:48:08.994Z,9
2023-05-11T02:50:07.946Z,6.8
2023-05-11T02:52:07.429Z,9.9
2023-05-11T02:54:07.983Z,12
2023-05-11T02:56:06.521Z,9
2023-05-11T02:58:05.101Z,7.5
2023-05-11T03:00:06.337Z,7.2
2023-05-11T03:02:05.663Z,8
2023-05-11T03:04:05.908Z,18.2
2023-05-11T03:06:05.469Z,9.4
2023-05-11T03:08:07.269Z,5.5
2023-05-11T03:10:09.777Z,9.1
2023-05-11T03:12:07.125Z,6.1
2023-05-11T03:14:06.291Z,8.3
2023-05-11T03:16:07.162Z,7.6
2023-05-11T03:18:08.404Z,11.8
2023-05-11T03:20:09.304Z,8.2
2023-05-11T03:22:07.663Z,5.2
2023-05-11T03:24:07.487Z,12.5
2023-05-11T03:26:08.771Z,6.2
2023-05-11T03:28:08.954Z,6
2023-05-11T03:30:14.180Z,9.1
2023-05-11T03:32:08.926Z,8.2
2023-05-11T03:34:09.980Z,5.9
2023-05-11T03:36:10.025Z,4.7
2023-05-11T03:38:11.166Z,12.1
2023-05-11T03:40:18.967Z,7.1
2023-05-11T03:42:09.638Z,10.8
2023-05-11T03:44:12.641Z,7.2
2023-05-11T03:46:12.788Z,7.6
2023-05-11T03:48:11.137Z,6.7
2023-05-11T03:50:10.497Z,8.8
2023-05-11T03:52:10.920Z,8.4
2023-05-11T03:54:09.833Z,7.9
2023-05-11T03:56:09.593Z,10.6
2023-05-11T03:58:10.538Z,13.2
2023-05-11T04:00:15.655Z,22.1
2023-05-11T04:02:10.332Z,6.6
2023-05-11T04:04:10.310Z,7.3
2023-05-11T04:06:10.414Z,12.4
2023-05-11T04:08:11.064Z,15.8
2023-05-11T04:10:11.455Z,9.7
2023-05-11T04:12:11.026Z,12.8
2023-05-11T04:14:11.226Z,7.2
2023-05-11T04:16:11.357Z,10.1
2023-05-11T04:18:11.609Z,7.4
2023-05-11T04:20:12.080Z,9.9
2023-05-11T04:22:12.062Z,7.1
2023-05-11T04:24:13.748Z,17.1
2023-05-11T04:26:12.426Z,8.8
2023-05-11T04:28:12.700Z,9.6
2023-05-11T04:30:13.550Z,7.6
2023-05-11T04:32:13.133Z,17.8
2023-05-11T04:34:13.983Z,9.8
2023-05-11T04:36:13.596Z,4.9
2023-05-11T04:38:13.726Z,35.2
2023-05-11T04:40:16.124Z,14
2023-05-11T04:42:15.086Z,13.3
2023-05-11T04:44:14.472Z,7.9
2023-05-11T04:46:14.931Z,14.9
2023-05-11T04:48:14.987Z,11.2
2023-05-11T04:50:15.352Z,11
2023-05-11T04:52:18.554Z,19.6
2023-05-11T04:54:15.572Z,6.7
2023-05-11T04:56:16.167Z,7.5
2023-05-11T04:58:16.018Z,7
2023-05-11T05:00:17.395Z,23.1
2023-05-11T05:02:16.623Z,10.1
2023-05-11T05:04:17.009Z,5.8
2023-05-11T05:06:17.172Z,8.9
2023-05-11T05:08:17.290Z,9.1
2023-05-11T05:10:17.975Z,9.7
2023-05-11T05:12:18.134Z,11.9
2023-05-11T05:14:18.094Z,12.3
2023-05-11T05:16:18.618Z,6
2023-05-11T05:18:19.636Z,12.5
2023-05-11T05:20:20.551Z,19.5
2023-05-11T05:22:19.907Z,22
2023-05-11T05:24:19.611Z,8.5
2023-05-11T05:26:20.641Z,10
2023-05-11T05:28:20.413Z,16.5
2023-05-11T05:30:21.558Z,18.2
2023-05-11T05:32:21.502Z,13.2
2023-05-11T05:34:21.325Z,24.3
2023-05-11T05:36:21.731Z,12.8
2023-05-11T05:38:21.645Z,12.9
2023-05-11T05:40:25.597Z,9.7
2023-05-11T05:42:22.540Z,11
2023-05-11T05:44:22.948Z,12.3
2023-05-11T05:46:23.305Z,39.1
2023-05-11T05:48:23.531Z,10.4
2023-05-11T05:50:23.762Z,8.1
2023-05-11T05:52:24.338Z,12.5
2023-05-11T05:54:24.364Z,8
2023-05-11T05:56:24.769Z,6.9
2023-05-11T05:58:25.143Z,7.7
2023-05-11T06:00:30.602Z,5.9
2023-05-11T06:02:27.291Z,7.6
2023-05-11T06:04:27.531Z,42.5
2023-05-11T06:06:27.553Z,11.4
2023-05-11T06:08:27.729Z,20
2023-05-11T06:10:28.422Z,21.2
2023-05-11T06:12:29.064Z,6.7
2023-05-11T06:14:29.416Z,6.1
2023-05-11T06:16:30.015Z,11.1
2023-05-11T06:18:30.857Z,13.3
2023-05-11T06:20:32.007Z,6.4
2023-05-11T06:22:31.837Z,20
2023-05-11T06:24:33.132Z,9
2023-05-11T06:26:33.190Z,7.2
2023-05-11T06:28:36.708Z,10
2023-05-11T06:30:34.269Z,9.4
2023-05-11T06:32:35.633Z,11.6
2023-05-11T06:34:35.795Z,5.8
2023-05-11T06:36:36.164Z,8.8
2023-05-11T06:38:37.204Z,8.8
2023-05-11T06:40:37.520Z,18.9
2023-05-11T06:42:40.416Z,13.4
2023-05-11T06:44:38.823Z,16.2
2023-05-11T06:46:39.239Z,47.3
2023-05-11T06:48:39.911Z,12.3
2023-05-11T06:50:41.014Z,12.4
2023-05-11T06:52:41.322Z,21.2
2023-05-11T06:54:43.513Z,10.4
2023-05-11T06:56:42.630Z,9.5
2023-05-11T06:58:43.390Z,8.3
2023-05-11T07:00:44.034Z,12.5
2023-05-11T07:02:44.755Z,11.6
2023-05-11T07:04:46.431Z,10.6
2023-05-11T07:06:47.677Z,16.6
2023-05-11T07:08:47.817Z,12.8
2023-05-11T07:10:47.862Z,7.4
2023-05-11T07:12:48.718Z,5.7
2023-05-11T07:14:50.054Z,7
2023-05-11T07:16:49.761Z,7.9
2023-05-11T07:18:50.617Z,9.2
2023-05-11T07:20:51.012Z,9.9
2023-05-11T07:22:51.783Z,13.3
2023-05-11T07:24:52.384Z,12.1
2023-05-11T07:26:52.965Z,6.3
2023-05-11T07:28:53.655Z,15.4
2023-05-11T07:30:54.239Z,12.2
2023-05-11T07:32:54.802Z,22.7
2023-05-11T07:34:55.305Z,3.8
2023-05-11T07:36:55.739Z,5.7
2023-05-11T07:38:56.246Z,5.3
2023-05-11T07:40:56.881Z,11.8
2023-05-11T07:42:57.313Z,7.4
2023-05-11T07:44:57.892Z,10.1
2023-05-11T07:46:58.267Z,9.3
2023-05-11T07:49:13.644Z,6.4
2023-05-11T07:50:59.062Z,7
2023-05-11T07:52:59.684Z,10.1
2023-05-11T07:55:00.185Z,5.6
2023-05-11T07:57:00.737Z,7.6
2023-05-11T07:59:01.040Z,6.4
2023-05-11T08:01:01.754Z,9.8
2023-05-11T08:03:01.815Z,11.3
2023-05-11T08:05:02.278Z,9
2023-05-11T08:07:03.042Z,9.6
2023-05-11T08:09:03.042Z,6.9
2023-05-11T08:11:04.305Z,7.1
2023-05-11T08:13:03.837Z,8.1
2023-05-11T08:15:05.248Z,12.6
2023-05-11T08:17:05.718Z,9.6
2023-05-11T08:19:05.199Z,4.5
2023-05-11T08:21:05.984Z,4.2
2023-05-11T08:23:06.287Z,8.3
2023-05-11T08:25:07.656Z,3.8
2023-05-11T08:27:06.711Z,4.6
2023-05-11T08:29:07.499Z,8.3
2023-05-11T08:31:07.508Z,12.2
2023-05-11T08:33:22.885Z,5.7
2023-05-11T08:35:09.101Z,7
2023-05-11T08:37:08.710Z,4.1
2023-05-11T08:39:09.109Z,7.5
2023-05-11T08:41:11.773Z,7.9
2023-05-11T08:43:10.933Z,7.6
2023-05-11T08:45:11.640Z,10.2
2023-05-11T08:47:22.680Z,14.5
2023-05-11T08:49:11.390Z,8.8
2023-05-11T08:51:12.010Z,23.4
2023-05-11T08:53:12.449Z,9.1
2023-05-11T08:55:13.108Z,7.9
2023-05-11T08:57:14.217Z,7.6
2023-05-11T08:59:14.392Z,7.6
2023-05-11T09:01:14.446Z,8.5
2023-05-11T09:03:15.064Z,12
2023-05-11T09:05:14.511Z,10.8
2023-05-11T09:07:16.729Z,9.8
2023-05-11T09:09:15.177Z,12.3
2023-05-11T09:11:15.808Z,21
2023-05-11T09:13:15.700Z,23
2023-05-11T09:15:16.198Z,31
2023-05-11T09:17:16.346Z,26.3
2023-05-11T09:19:16.751Z,18.5
2023-05-11T09:21:17.476Z,17.8
2023-05-11T09:23:17.893Z,21
2023-05-11T09:25:18.062Z,19.3
2023-05-11T09:27:21.176Z,19.2
2023-05-11T09:29:19.435Z,12.8
2023-05-11T09:31:35.006Z,7.1
2023-05-11T09:33:22.885Z,13.1
2023-05-11T09:35:21.847Z,7.8
2023-05-11T09:37:19.577Z,11.3
2023-05-11T09:41:20.456Z,15.3
2023-05-11T09:43:24.163Z,7
2023-05-11T09:45:37.434Z,5.8
2023-05-11T09:47:21.324Z,6.2
2023-05-11T09:49:28.924Z,6.5
2023-05-11T09:51:28.777Z,10
2023-05-11T09:53:33.969Z,21.1
2023-05-11T09:55:22.658Z,7.2
2023-05-11T09:57:25.542Z,9.9
2023-05-11T09:59:38.068Z,14
2023-05-11T10:01:33.060Z,12.2
2023-05-11T10:03:25.331Z,9.7
2023-05-11T10:05:24.354Z,7.4
2023-05-11T10:07:27.029Z,12.4
2023-05-11T10:09:26.538Z,4.3
2023-05-11T10:11:26.416Z,7.9
2023-05-11T10:13:26.007Z,8.4
2023-05-11T10:15:27.620Z,12.2
2023-05-11T10:17:27.700Z,5.7
2023-05-11T10:19:27.320Z,10.7
2023-05-11T10:21:28.056Z,6
2023-05-11T10:23:30.284Z,9.6
2023-05-11T10:25:27.917Z,6.3
2023-05-11T10:27:28.484Z,4.6
2023-05-11T10:29:30.324Z,5.3
2023-05-11T10:31:31.173Z,6.5
2023-05-11T10:33:30.056Z,6.3
2023-05-11T10:35:31.037Z,16.5
2023-05-11T10:37:30.149Z,4.9
2023-05-11T10:39:30.800Z,6.4
2023-05-11T10:41:46.368Z,6.3
2023-05-11T10:43:49.246Z,3
2023-05-11T10:45:40.359Z,3.1
2023-05-11T10:47:53.540Z,5.9
2023-05-11T10:49:57.668Z,3.4
2023-05-11T10:51:48.682Z,5.4
2023-05-11T10:53:48.214Z,5.7
2023-05-11T10:55:50.042Z,5.2
2023-05-11T10:57:45.425Z,3.9
2023-05-11T11:00:07.023Z,5.5
2023-05-11T11:01:37.708Z,7.4
2023-05-11T11:03:35.224Z,8.6
2023-05-11T11:05:36.399Z,4.7
2023-05-11T11:07:58.177Z,2.6
2023-05-11T11:09:52.404Z,3.3
2023-05-11T11:11:38.241Z,5.8
2023-05-11T11:13:59.848Z,6.2
2023-05-11T11:16:06.485Z,7.5
2023-05-11T11:17:37.777Z,6.7
2023-05-11T11:19:38.128Z,6.7
2023-05-11T11:21:40.073Z,6.2
2023-05-11T11:23:48.493Z,5.3
2023-05-11T11:25:53.962Z,3.1
2023-05-11T11:27:55.703Z,3.1
2023-05-11T11:29:40.154Z,12.3
2023-05-11T11:31:41.992Z,7.4
2023-05-11T11:33:40.736Z,15.3
2023-05-11T11:35:48.288Z,13.6
2023-05-11T11:38:00.246Z,19.4
2023-05-11T11:39:47.555Z,13.2
2023-05-11T11:41:43.044Z,16.8
2023-05-11T11:43:43.856Z,10
2023-05-11T11:45:51.229Z,10.7
2023-05-11T11:48:12.985Z,5.3
2023-05-11T11:49:45.194Z,8.3
2023-05-11T11:51:44.763Z,4.7
2023-05-11T11:54:01.220Z,8.6
2023-05-11T11:55:46.341Z,4.5
2023-05-11T11:57:45.093Z,9
2023-05-11T11:59:45.986Z,5.5
2023-05-11T12:01:51.699Z,7.8
2023-05-11T12:03:49.770Z,7.8
2023-05-11T12:05:49.980Z,10.2
2023-05-11T12:07:49.920Z,10.5
2023-05-11T12:09:47.162Z,6
2023-05-11T12:11:48.060Z,9.1
2023-05-11T12:13:49.103Z,9.1
2023-05-11T12:15:47.994Z,4.9
2023-05-11T12:17:48.439Z,7.6
2023-05-11T12:19:48.632Z,13.8
2023-05-11T12:21:49.946Z,11.2
2023-05-11T12:23:53.338Z,5.9
2023-05-11T12:26:00.425Z,5.4
2023-05-11T12:27:51.896Z,6.3
2023-05-11T12:29:51.097Z,6.4
2023-05-11T12:31:50.856Z,3.6
2023-05-11T12:33:51.664Z,3.4
2023-05-11T12:35:52.942Z,6.8
2023-05-11T12:37:52.486Z,7.2
2023-05-11T12:39:54.289Z,2.6
2023-05-11T12:41:54.143Z,5.9
2023-05-11T12:43:54.395Z,10
2023-05-11T12:45:53.658Z,8.4
2023-05-11T12:47:55.567Z,9.9
2023-05-11T12:49:54.089Z,9.3
2023-05-11T12:52:02.427Z,16
2023-05-11T12:53:54.660Z,14.2
2023-05-11T12:55:59.067Z,12.5
2023-05-11T12:58:07.273Z,7.4
2023-05-11T13:00:11.224Z,8.9
2023-05-11T13:02:05.490Z,6.6
2023-05-11T13:03:56.527Z,6.9
2023-05-11T13:06:05.215Z,4.4
2023-05-11T13:07:58.082Z,11.4
2023-05-11T13:09:59.177Z,5.2
2023-05-11T13:12:13.717Z,9.3
2023-05-11T13:13:58.049Z,6.8
2023-05-11T13:15:58.402Z,5.4
2023-05-11T13:18:00.723Z,9.5
2023-05-11T13:20:14.477Z,17.6
2023-05-11T13:21:59.800Z,16.9
2023-05-11T13:24:00.249Z,8.7
2023-05-11T13:26:00.390Z,5.4
2023-05-11T13:28:00.837Z,7.2
2023-05-11T13:30:00.869Z,7.1
2023-05-11T13:32:01.271Z,9.4
2023-05-11T13:34:01.673Z,12.1
2023-05-11T13:36:01.980Z,12.3
2023-05-11T13:38:02.302Z,14.3
2023-05-11T13:40:03.219Z,23.3
2023-05-11T13:42:03.257Z,19.9
2023-05-11T13:44:04.922Z,4.8
2023-05-11T13:46:04.220Z,6.3
2023-05-11T13:48:06.715Z,7.3
2023-05-11T13:50:05.541Z,6.5
2023-05-11T13:52:05.136Z,8.5
2023-05-11T13:54:05.155Z,14.2
2023-05-11T13:56:05.868Z,16.8
2023-05-11T13:58:05.958Z,11.4
2023-05-11T14:00:12.056Z,11.3
2023-05-11T14:02:06.948Z,11.5
2023-05-11T14:04:06.806Z,14.7
2023-05-11T14:06:07.135Z,12.5
2023-05-11T14:08:07.423Z,11
2023-05-11T14:10:08.652Z,12
2023-05-11T14:12:08.231Z,10.6
2023-05-11T14:14:08.443Z,5.9
2023-05-11T14:16:08.797Z,8.4
2023-05-11T14:18:09.200Z,5.2
2023-05-11T14:20:10.589Z,15.6
2023-05-11T14:22:09.657Z,13.1
2023-05-11T14:24:12.641Z,9.7
2023-05-11T14:26:10.608Z,9.1
2023-05-11T14:28:10.632Z,12.9
2023-05-11T14:30:11.542Z,37.8
2023-05-11T14:32:11.497Z,9.7
2023-05-11T14:34:11.868Z,4.6
2023-05-11T14:36:12.054Z,16
2023-05-11T14:38:12.420Z,9.1
2023-05-11T14:40:12.893Z,11.5
2023-05-11T14:42:13.154Z,5.8
2023-05-11T14:44:13.715Z,8.8
2023-05-11T14:46:13.936Z,18.3
2023-05-11T14:48:14.149Z,9.5
2023-05-11T14:50:14.609Z,14.8
2023-05-11T14:52:14.763Z,12.9
2023-05-11T14:54:15.047Z,8.9
2023-05-11T14:56:15.776Z,5.6
2023-05-11T14:58:15.995Z,7.6
2023-05-11T15:00:16.947Z,10.1
2023-05-11T15:02:16.404Z,12.2
2023-05-11T15:04:16.988Z,9.3
2023-05-11T15:06:17.077Z,18.8
2023-05-11T15:08:29.079Z,11.8
2023-05-11T15:10:18.045Z,11.2
2023-05-11T15:12:18.022Z,12
2023-05-11T15:14:18.426Z,10.2
2023-05-11T15:16:18.695Z,14
2023-05-11T15:18:19.158Z,10.3
2023-05-11T15:20:19.387Z,14.4
2023-05-11T15:22:19.495Z,14.9
2023-05-11T15:24:19.714Z,17.3
2023-05-11T15:26:20.257Z,17.7
2023-05-11T15:28:20.490Z,21.9
2023-05-11T15:30:20.883Z,17.8
2023-05-11T15:32:21.033Z,15.6
2023-05-11T15:34:21.160Z,11.1
2023-05-11T15:36:21.598Z,13.1
2023-05-11T15:38:21.780Z,19.8
2023-05-11T15:40:22.108Z,15.6
2023-05-11T15:42:22.446Z,9.9
2023-05-11T15:44:22.567Z,13.8
2023-05-11T15:46:23.083Z,12.2
2023-05-11T15:48:23.318Z,14.5
2023-05-11T15:50:23.689Z,13.5
2023-05-11T15:52:23.961Z,11.9
2023-05-11T15:54:24.144Z,14.9
2023-05-11T15:56:24.338Z,13.2
2023-05-11T15:58:25.377Z,13.1
2023-05-11T16:00:25.049Z,16
2023-05-11T16:02:25.318Z,17.4
2023-05-11T16:04:25.552Z,13.8
2023-05-11T16:06:25.988Z,21.1
2023-05-11T16:08:26.237Z,16.2
2023-05-11T16:10:26.659Z,12.8
2023-05-11T16:12:26.714Z,14.7
2023-05-11T16:14:26.960Z,14.2
2023-05-11T16:16:27.604Z,16.6
2023-05-11T16:18:27.835Z,19
2023-05-11T16:20:30.042Z,9.3
2023-05-11T16:22:28.195Z,10.7
2023-05-11T16:24:28.606Z,14.4
2023-05-11T16:26:31.032Z,32
2023-05-11T16:28:29.236Z,15.5
2023-05-11T16:30:30.757Z,10.3
2023-05-11T16:32:29.854Z,12.8
2023-05-11T16:34:30.217Z,28.5
2023-05-11T16:36:30.426Z,33.9
2023-05-11T16:38:31.253Z,38.4
2023-05-11T16:40:31.145Z,34
2023-05-11T16:42:31.311Z,23
2023-05-11T16:44:31.631Z,33.9
2023-05-11T16:46:31.976Z,23.1
2023-05-11T16:48:32.197Z,18
2023-05-11T16:50:32.778Z,14.3
2023-05-11T16:52:32.860Z,23.5
2023-05-11T16:54:33.110Z,11.9
2023-05-11T16:56:33.950Z,16
2023-05-11T16:58:33.958Z,18.6
2023-05-11T17:00:34.463Z,11.6
2023-05-11T17:02:34.383Z,13.8
2023-05-11T17:04:34.533Z,10.6
2023-05-11T17:06:34.786Z,16.6
2023-05-11T17:08:35.391Z,8.3
2023-05-11T17:10:35.498Z,29.6
2023-05-11T17:12:35.572Z,11.9
2023-05-11T17:14:36.046Z,9.9
2023-05-11T17:16:36.290Z,22.2
2023-05-11T17:18:36.312Z,12.3
2023-05-11T17:20:36.662Z,15.6
2023-05-11T17:22:37.068Z,13.6
2023-05-11T17:24:37.191Z,12.1
2023-05-11T17:26:47.269Z,15.8
2023-05-11T17:28:37.810Z,15.7
2023-05-11T17:30:48.243Z,21.7
2023-05-11T17:32:38.258Z,24
2023-05-11T17:34:38.395Z,15.7
2023-05-11T17:36:38.781Z,12.5
2023-05-11T17:38:38.799Z,30.1
2023-05-11T17:40:39.107Z,13.3
2023-05-11T17:42:39.253Z,26.5
2023-05-11T17:44:39.579Z,18.1
2023-05-11T17:46:39.864Z,20.6
2023-05-11T17:48:40.042Z,50
2023-05-11T17:50:41.163Z,24.4
2023-05-11T17:52:40.701Z,18.4
2023-05-11T17:54:40.892Z,28.7
2023-05-11T17:56:41.087Z,22.6
2023-05-11T17:58:41.684Z,16.1
2023-05-11T18:00:41.908Z,17.4
2023-05-11T18:02:41.903Z,21.3
2023-05-11T18:04:42.199Z,21.7
2023-05-11T18:06:42.335Z,13.7
2023-05-11T18:08:42.628Z,21.1
2023-05-11T18:10:42.907Z,16.8
2023-05-11T18:12:43.041Z,9.9
2023-05-11T18:14:43.447Z,12.3
2023-05-11T18:16:43.581Z,12.3
2023-05-11T18:18:43.952Z,17.1
2023-05-11T18:20:44.106Z,11.9
2023-05-11T18:22:44.180Z,14.7
2023-05-11T18:24:44.610Z,14.1
2023-05-11T18:26:44.839Z,18.7
2023-05-11T18:28:45.179Z,15.8
2023-05-11T18:30:45.586Z,14.7
2023-05-11T18:32:45.443Z,10.1
2023-05-11T18:34:45.745Z,21.7
2023-05-11T18:36:45.978Z,18.8
2023-05-11T18:38:46.797Z,16.3
2023-05-11T18:40:46.349Z,20.3
2023-05-11T18:42:46.753Z,15.8
2023-05-11T18:44:46.862Z,21.9
2023-05-11T18:46:47.132Z,25
2023-05-11T18:48:47.434Z,21
2023-05-11T18:50:53.686Z,21.2
2023-05-11T18:52:47.827Z,14.4
2023-05-11T18:54:48.123Z,12.6
2023-05-11T18:56:48.445Z,22.8
2023-05-11T18:58:48.605Z,18
2023-05-11T19:00:50.147Z,25.1
2023-05-11T19:02:49.499Z,25.5
2023-05-11T19:04:49.159Z,19.4
2023-05-11T19:06:49.474Z,15.6
2023-05-11T19:08:49.882Z,16.1
2023-05-11T19:10:49.926Z,17.5
2023-05-11T19:12:50.124Z,12.4
2023-05-11T19:14:52.647Z,14.7
2023-05-11T19:16:50.500Z,13.9
2023-05-11T19:18:50.829Z,10.2
2023-05-11T19:20:50.999Z,11.4
2023-05-11T19:22:51.083Z,9.3
2023-05-11T19:24:51.260Z,17.8
2023-05-11T19:27:02.947Z,32.3
2023-05-11T19:28:51.641Z,36.2
2023-05-11T19:31:00.000Z,46.6
2023-05-11T19:32:52.184Z,18.1
2023-05-11T19:34:52.350Z,26.9
2023-05-11T19:36:52.527Z,37.7
2023-05-11T19:38:52.816Z,78.6
2023-05-11T19:40:53.226Z,47.8
2023-05-11T19:42:53.151Z,41.3
2023-05-11T19:44:53.378Z,30.8
2023-05-11T19:46:53.548Z,31.2
2023-05-11T19:48:53.672Z,31.4
2023-05-11T19:50:53.953Z,29.9
2023-05-11T19:52:54.263Z,25.2
2023-05-11T19:54:54.227Z,28
2023-05-11T19:56:55.801Z,21.3
2023-05-11T19:58:54.541Z,24.2
2023-05-11T20:00:55.256Z,28.3
2023-05-11T20:02:55.181Z,32.2
2023-05-11T20:04:55.104Z,45.9
2023-05-11T20:06:55.830Z,34.9
2023-05-11T20:08:55.845Z,34.6
2023-05-11T20:10:55.667Z,27.7
2023-05-11T20:12:56.007Z,28.5
2023-05-11T20:14:55.988Z,25.6
2023-05-11T20:16:56.242Z,30.8
2023-05-11T20:18:56.705Z,37.6
2023-05-11T20:20:56.542Z,24.6
2023-05-11T20:22:58.205Z,17.2
2023-05-11T20:24:56.849Z,21.8
2023-05-11T20:26:57.137Z,24.8
2023-05-11T20:28:57.133Z,28.9
2023-05-11T20:30:57.307Z,24.8
2023-05-11T20:34:57.694Z,16.3
2023-05-11T20:36:57.962Z,18.9
2023-05-11T20:38:58.830Z,32.6
2023-05-11T20:40:58.226Z,20.4
2023-05-11T20:42:58.330Z,27.1
2023-05-11T20:44:58.618Z,36.4
2023-05-11T20:46:58.610Z,41.5
2023-05-11T20:48:58.824Z,39.6
2023-05-11T20:50:58.915Z,27.7
2023-05-11T20:52:59.120Z,32.3
2023-05-11T20:54:59.384Z,25.5
2023-05-11T20:56:59.814Z,21.7
2023-05-11T20:58:59.670Z,28.1
2023-05-11T21:00:59.792Z,22.5
2023-05-11T21:03:00.009Z,23.8
2023-05-11T21:05:00.178Z,28.4
2023-05-11T21:07:00.294Z,28.6
2023-05-11T21:09:00.500Z,25.7
2023-05-11T21:11:00.534Z,27.6
2023-05-11T21:13:00.951Z,23.3
2023-05-11T21:15:00.964Z,23.8
2023-05-11T21:17:01.168Z,27.8
2023-05-11T21:19:01.405Z,23
2023-05-11T21:21:01.466Z,29
2023-05-11T21:23:01.462Z,18.3
2023-05-11T21:25:03.434Z,19
2023-05-11T21:27:01.814Z,25.4
2023-05-11T21:29:01.972Z,18.7
2023-05-11T21:31:02.225Z,17.6
2023-05-11T21:33:02.314Z,29.1
2023-05-11T21:35:02.503Z,20.1
2023-05-11T21:37:02.802Z,25.3
2023-05-11T21:39:02.868Z,20.4
2023-05-11T21:41:02.963Z,31.9
2023-05-11T21:43:02.968Z,27.2
2023-05-11T21:45:03.721Z,38.6
2023-05-11T21:47:03.916Z,26.5
2023-05-11T21:49:03.975Z,23.6
2023-05-11T21:51:03.918Z,26.3
2023-05-11T21:53:03.787Z,31
2023-05-11T21:55:04.650Z,21.3
2023-05-11T21:57:04.335Z,21.5
2023-05-11T21:59:04.092Z,23.3
2023-05-11T22:01:04.293Z,31.4
2023-05-11T22:03:04.671Z,32.8
2023-05-11T22:05:05.172Z,26.7
2023-05-11T22:07:04.798Z,25.8
2023-05-11T22:09:04.851Z,24.7
2023-05-11T22:11:04.922Z,26.7
2023-05-11T22:13:05.032Z,27.1
2023-05-11T22:15:06.066Z,27.1
2023-05-11T22:17:05.709Z,25
2023-05-11T22:19:05.351Z,29.4
2023-05-11T22:21:05.422Z,30.4
2023-05-11T22:23:05.615Z,26.8
2023-05-11T22:25:06.777Z,25.3
2023-05-11T22:27:06.136Z,27.6
2023-05-11T22:29:06.050Z,30.7
2023-05-11T22:31:06.076Z,34.1
2023-05-11T22:33:06.181Z,32.7
2023-05-11T22:35:07.127Z,29.2
2023-05-11T22:37:06.284Z,28.1
2023-05-11T22:39:06.460Z,28.7
2023-05-11T22:41:06.475Z,30
2023-05-11T22:43:06.615Z,28.5
2023-05-11T22:45:07.948Z,29.9
2023-05-11T22:47:06.814Z,24.6
2023-05-11T22:49:07.018Z,29.6
2023-05-11T22:51:06.989Z,33.6
2023-05-11T22:53:07.176Z,27.5
2023-05-11T22:55:08.495Z,25.6
2023-05-11T22:57:07.307Z,27.7
2023-05-11T22:59:07.444Z,30.6
2023-05-11T23:01:07.604Z,28.4
2023-05-11T23:03:07.759Z,34.5
2023-05-11T23:05:08.478Z,30.4
2023-05-11T23:07:08.414Z,29.3
2023-05-11T23:09:08.026Z,29.7
2023-05-11T23:11:08.091Z,29.1
2023-05-11T23:13:09.908Z,29.3
2023-05-11T23:15:09.158Z,26.3
2023-05-11T23:17:08.392Z,29.3
2023-05-11T23:19:08.615Z,19.4
2023-05-11T23:21:08.675Z,23.9
2023-05-11T23:23:08.715Z,26.4
2023-05-11T23:25:09.703Z,18.3
2023-05-11T23:27:08.988Z,26.5
2023-05-11T23:29:09.134Z,27.4
2023-05-11T23:31:09.076Z,26.6
2023-05-11T23:33:09.308Z,19.1
2023-05-11T23:35:09.432Z,17.7
2023-05-11T23:37:09.428Z,17.2
2023-05-11T23:39:09.999Z,17.6
2023-05-11T23:41:09.598Z,18.8
2023-05-11T23:43:09.648Z,16.8
2023-05-11T23:45:10.837Z,17
2023-05-11T23:47:09.919Z,20.1
2023-05-11T23:49:09.873Z,21.2
2023-05-11T23:51:10.078Z,17.4
2023-05-11T23:53:10.050Z,21.2
2023-05-11T23:55:10.803Z,23.8
2023-05-11T23:57:10.397Z,24.6
2023-05-11T23:59:10.307Z,21.4
